KJWY

Details ICAO KJWY
Name Waxahachie/Mid-Way Rgnl
Region United States
Timezone America/Chicago (UTC-6.0)
Plans Departing 1
Arriving 1
Stats Elevation 713 ft / 217 m (AMSL)
Location 32.458133° -96.912226°
Runways 1
Magnetic Variation 3.361° E
Sunrise 2017-12-16 13:24:02 UTC / 2017-12-16 07:24:02 Local
Sunset 2017-12-16 23:25:33 UTC / 2017-12-16 17:25:33 Local
Advertisement - Login to hide

Runways

ID Width Length Bearing (true) Bearing (mag) Surface Threshold Offset Overrun Length
18 98 ft / 30 m 6,506 ft / 1,983 m 184.00° 180.64° Asphalt 0 ft / 0 m 0 ft / 0 m
36 98 ft / 30 m 6,506 ft / 1,983 m 4.00° 0.64° Asphalt 0 ft / 0 m 0 ft / 0 m

Map

Weather


0- 5 10 15 20 25 30 35+ Temperature / ° C

Clouds and Precipitation
Forecast for 2017-12-16 12:00 UTC. Updated 21 minutes ago

Ground ~20,000 ft ~40,000 ft Winds

METAR

KJWY 160735Z AUTO 00000KT 10SM CLR 02/M03 A3018 RMK AO2 T00231031

TAF

Not found

Frequencies

Recorded 119.57 MHz AWOS 3
Approach 125.20 MHz REGIONAL APP/DEP
Unicom 122.97 MHz CTAF/UNICOM
Warning: Do not use this data for real-world aviation or navigation. No guarantee of current accuracy is given.